createdAt,value
2018-04-02T00:02:03.235Z,4.43
2018-04-02T00:04:31.518Z,5.30
2018-04-02T00:06:59.050Z,5.13
2018-04-02T00:09:26.546Z,3.70
2018-04-02T00:11:54.117Z,5.47
2018-04-02T00:14:21.631Z,6.07
2018-04-02T00:16:49.146Z,6.57
2018-04-02T00:19:17.436Z,6.30
2018-04-02T00:21:44.993Z,8.33
2018-04-02T00:24:12.525Z,4.70
2018-04-02T00:26:40.823Z,3.93
2018-04-02T00:29:09.107Z,3.97
2018-04-02T00:31:36.638Z,6.53
2018-04-02T00:34:04.163Z,8.00
2018-04-02T00:36:31.696Z,5.33
2018-04-02T00:38:59.323Z,5.47
2018-04-02T00:41:26.918Z,8.30
2018-04-02T00:43:54.515Z,6.73
2018-04-02T00:46:22.043Z,6.50
2018-04-02T00:48:49.603Z,4.47
2018-04-02T00:51:17.103Z,5.80
2018-04-02T00:53:44.625Z,5.43
2018-04-02T00:56:12.179Z,4.93
2018-04-02T00:58:39.696Z,6.57
2018-04-02T01:01:07.263Z,5.93
2018-04-02T01:03:34.815Z,6.47
2018-04-02T01:06:02.359Z,4.60
2018-04-02T01:08:29.891Z,6.43
2018-04-02T01:10:57.378Z,6.30
2018-04-02T01:13:24.911Z,11.63
2018-04-02T01:15:52.445Z,5.80
2018-04-02T01:18:19.962Z,5.60
2018-04-02T01:20:47.498Z,6.40
2018-04-02T01:23:14.998Z,7.33
2018-04-02T01:25:42.514Z,8.30
2018-04-02T01:28:10.939Z,5.87
2018-04-02T01:30:38.434Z,6.93
2018-04-02T01:33:06.791Z,5.93
2018-04-02T01:35:34.321Z,7.63
2018-04-02T01:38:02.648Z,5.90
2018-04-02T01:40:30.195Z,6.80
2018-04-02T01:42:57.722Z,5.83
2018-04-02T01:45:25.235Z,8.13
2018-04-02T01:47:52.755Z,7.63
2018-04-02T01:50:20.271Z,5.43
2018-04-02T01:52:47.768Z,6.77
2018-04-02T01:55:16.042Z,9.20
2018-04-02T01:57:43.565Z,6.00
2018-04-02T02:00:11.095Z,6.97
2018-04-02T02:02:38.625Z,6.07
2018-04-02T02:05:06.143Z,4.97
2018-04-02T02:07:33.669Z,5.77
2018-04-02T02:10:01.982Z,5.00
2018-04-02T02:12:29.503Z,4.73
2018-04-02T02:14:57.052Z,5.80
2018-04-02T02:17:24.571Z,8.00
2018-04-02T02:19:52.090Z,5.10
2018-04-02T02:22:19.599Z,6.67
2018-04-02T02:24:47.118Z,8.27
2018-04-02T02:27:14.647Z,8.77
2018-04-02T02:29:42.199Z,6.67
2018-04-02T02:32:09.734Z,8.30
2018-04-02T02:34:37.234Z,5.37
2018-04-02T02:37:05.531Z,7.23
2018-04-02T02:39:33.076Z,5.80
2018-04-02T02:42:00.608Z,6.57
2018-04-02T02:44:28.898Z,7.07
2018-04-02T02:46:57.200Z,7.63
2018-04-02T02:49:25.503Z,8.83
2018-04-02T02:51:53.022Z,5.63
2018-04-02T02:54:20.566Z,8.30
2018-04-02T02:56:48.084Z,7.00
2018-04-02T02:59:15.608Z,7.50
2018-04-02T03:01:43.141Z,5.77
2018-04-02T03:04:11.435Z,7.50
2018-04-02T03:06:38.982Z,5.73
2018-04-02T03:09:06.530Z,7.77
2018-04-02T03:11:34.823Z,7.37
2018-04-02T03:14:02.356Z,6.83
2018-04-02T03:16:29.874Z,5.83
2018-04-02T03:18:57.405Z,8.30
2018-04-02T03:21:24.926Z,6.33
2018-04-02T03:23:52.462Z,5.33
2018-04-02T03:26:20.034Z,10.70
2018-04-02T03:28:47.558Z,4.43
2018-04-02T03:31:15.079Z,6.47
2018-04-02T03:33:42.603Z,7.07
2018-04-02T03:36:10.102Z,5.30
2018-04-02T03:38:37.606Z,8.63
2018-04-02T03:41:05.094Z,7.03
2018-04-02T03:43:32.564Z,5.60
2018-04-02T03:46:00.046Z,6.20
2018-04-02T03:48:27.525Z,7.83
2018-04-02T03:50:55.010Z,5.37
2018-04-02T03:53:22.490Z,5.20
2018-04-02T03:55:49.977Z,7.67
2018-04-02T03:58:17.463Z,6.13
2018-04-02T04:00:44.937Z,8.70
2018-04-02T04:03:12.406Z,6.70
2018-04-02T04:05:39.894Z,4.13
2018-04-02T04:08:07.368Z,5.17
2018-04-02T04:10:35.614Z,4.13
2018-04-02T04:13:03.093Z,5.73
2018-04-02T04:15:30.575Z,10.10
2018-04-02T04:17:58.052Z,5.00
2018-04-02T04:20:25.533Z,4.53
2018-04-02T04:22:53.014Z,4.30
2018-04-02T04:25:20.502Z,5.27
2018-04-02T04:27:47.978Z,8.93
2018-04-02T04:30:15.462Z,6.20
2018-04-02T04:32:42.947Z,6.37
2018-04-02T04:35:10.429Z,4.37
2018-04-02T04:37:37.909Z,12.33
2018-04-02T04:40:05.393Z,5.87
2018-04-02T04:42:32.869Z,5.70
2018-04-02T04:45:01.113Z,6.23
2018-04-02T04:47:28.598Z,9.70
2018-04-02T04:49:56.082Z,7.57
2018-04-02T04:52:23.559Z,5.17
2018-04-02T04:54:51.038Z,4.33
2018-04-02T04:57:18.509Z,4.53
2018-04-02T04:59:46.001Z,5.30
2018-04-02T05:02:13.486Z,5.43
2018-04-02T05:04:40.970Z,7.53
2018-04-02T05:07:08.442Z,5.67
2018-04-02T05:09:35.916Z,5.23
2018-04-02T05:12:03.390Z,8.53
2018-04-02T05:14:30.875Z,6.90
2018-04-02T05:16:58.347Z,7.53
2018-04-02T05:19:26.591Z,8.00
2018-04-02T05:21:54.061Z,13.73
2018-04-02T05:24:21.541Z,8.80
2018-04-02T05:26:49.014Z,14.40
2018-04-02T05:29:16.497Z,8.87
2018-04-02T05:31:44.737Z,12.77
2018-04-02T05:34:12.225Z,8.50
2018-04-02T05:36:39.702Z,8.93
2018-04-02T05:39:07.179Z,4.53
2018-04-02T05:41:34.657Z,4.67
2018-04-02T05:44:02.137Z,6.00
2018-04-02T05:46:29.618Z,5.80
2018-04-02T05:48:57.098Z,3.30
2018-04-02T05:51:24.573Z,3.37
2018-04-02T05:53:52.046Z,3.30
2018-04-02T05:56:20.313Z,4.83
2018-04-02T05:58:47.752Z,4.27
2018-04-02T06:01:15.233Z,4.40
2018-04-02T06:03:48.500Z,7.10
2018-04-02T06:06:15.981Z,7.57
2018-04-02T06:08:43.457Z,3.27
2018-04-02T06:11:10.945Z,4.27
2018-04-02T06:13:38.417Z,7.17
2018-04-02T06:16:25.757Z,6.47
2018-04-02T06:19:04.304Z,6.40
2018-04-02T06:21:31.785Z,3.67
2018-04-02T06:23:59.257Z,5.10
2018-04-02T06:26:27.438Z,4.03
2018-04-02T06:29:00.632Z,4.70
2018-04-02T06:31:29.044Z,5.43
2018-04-02T06:33:57.289Z,3.97
2018-04-02T06:36:24.776Z,8.17
2018-04-02T06:38:52.263Z,5.87
2018-04-02T06:44:28.240Z,7.23
2018-04-02T06:46:56.490Z,4.57
2018-04-02T06:49:23.968Z,3.80
2018-04-02T06:51:51.446Z,6.07
2018-04-02T06:54:18.921Z,5.53
2018-04-02T06:56:46.406Z,3.87
2018-04-02T07:05:14.017Z,6.00
2018-04-02T07:07:41.492Z,8.30
2018-04-02T07:10:08.974Z,7.07
2018-04-02T07:12:36.452Z,9.07
2018-04-02T07:15:04.693Z,5.93
2018-04-02T07:17:32.165Z,4.93
2018-04-02T07:19:59.654Z,6.00
2018-04-02T07:22:27.129Z,4.80
2018-04-02T07:24:54.621Z,5.07
2018-04-02T07:27:22.118Z,7.07
2018-04-02T07:29:49.590Z,7.27
2018-04-02T07:35:09.805Z,5.33
2018-04-02T07:37:37.299Z,4.63
2018-04-02T07:40:04.806Z,8.53
2018-04-02T07:42:32.300Z,6.70
2018-04-02T07:48:04.420Z,5.60
2018-04-02T07:50:31.982Z,4.40
2018-04-02T07:52:59.470Z,4.53
2018-04-02T07:55:27.038Z,4.63
2018-04-02T07:57:54.565Z,5.20
2018-04-02T08:00:22.860Z,5.73
2018-04-02T08:02:51.211Z,4.83
2018-04-02T08:05:18.785Z,5.80
2018-04-02T08:07:46.326Z,5.20
2018-04-02T08:10:13.839Z,5.90
2018-04-02T08:12:41.354Z,6.97
2018-04-02T08:15:08.870Z,5.30
2018-04-02T08:17:36.398Z,6.53
2018-04-02T08:20:03.907Z,5.90
2018-04-02T08:22:31.661Z,7.50
2018-04-02T08:24:59.741Z,4.57
2018-04-02T08:27:28.038Z,5.57
2018-04-02T08:29:55.576Z,6.70
2018-04-02T08:32:23.110Z,5.70
2018-04-02T08:34:51.398Z,5.67
2018-04-02T08:37:18.996Z,6.97
2018-04-02T08:39:47.377Z,6.37
2018-04-02T08:42:14.911Z,5.83
2018-04-02T08:44:42.462Z,7.20
2018-04-02T08:47:10.024Z,8.37
2018-04-02T08:49:38.323Z,6.60
2018-04-02T08:52:05.888Z,7.83
2018-04-02T08:54:33.435Z,6.10
2018-04-02T08:57:01.771Z,7.03
2018-04-02T08:59:29.339Z,6.90
2018-04-02T09:02:06.824Z,6.30
2018-04-02T09:04:34.382Z,8.27
2018-04-02T09:07:01.903Z,7.03
2018-04-02T09:09:29.459Z,6.40
2018-04-02T09:11:57.142Z,6.90
2018-04-02T09:14:24.707Z,5.80
2018-04-02T09:16:52.279Z,5.50
2018-04-02T09:19:19.786Z,6.23
2018-04-02T09:21:48.108Z,6.73
2018-04-02T09:24:15.702Z,6.43
2018-04-02T09:26:43.256Z,5.80
2018-04-02T09:29:12.945Z,2.83
2018-04-02T09:31:41.267Z,6.87
2018-04-02T09:34:08.806Z,5.70
2018-04-02T09:36:36.441Z,4.23
2018-04-02T09:39:04.108Z,4.80
2018-04-02T09:44:29.935Z,5.07
2018-04-02T09:46:58.233Z,5.03
2018-04-02T09:49:25.833Z,7.07
2018-04-02T09:51:53.376Z,5.10
2018-04-02T09:54:20.918Z,5.40
2018-04-02T09:56:48.426Z,4.43
2018-04-02T09:59:16.087Z,4.63
2018-04-02T10:01:43.819Z,5.33
2018-04-02T10:04:11.460Z,4.20
2018-04-02T10:06:39.280Z,4.13
2018-04-02T10:09:07.217Z,6.50
2018-04-02T10:11:35.562Z,4.90
2018-04-02T10:14:03.127Z,5.10
2018-04-02T10:16:30.643Z,4.13
2018-04-02T10:18:59.059Z,4.40
2018-04-02T10:21:26.675Z,5.33
2018-04-02T10:23:54.827Z,6.30
2018-04-02T10:26:22.407Z,7.07
2018-04-02T10:29:01.615Z,4.73
2018-04-02T10:31:53.022Z,6.83
2018-04-02T10:37:14.674Z,3.67
2018-04-02T10:39:42.178Z,4.60
2018-04-02T10:42:09.734Z,5.07
2018-04-02T10:44:37.277Z,6.23
2018-04-02T10:47:04.829Z,3.83
2018-04-02T10:49:32.371Z,4.13
2018-04-02T10:51:59.894Z,4.63
2018-04-02T10:54:27.455Z,5.67
2018-04-02T10:56:55.991Z,3.53
2018-04-02T10:59:23.502Z,4.77
2018-04-02T11:01:52.765Z,3.47
2018-04-02T11:04:20.278Z,3.80
2018-04-02T11:06:47.824Z,4.83
2018-04-02T11:09:15.419Z,5.07
2018-04-02T11:11:42.987Z,3.53
2018-04-02T11:14:10.503Z,3.77
2018-04-02T11:16:38.077Z,3.70
2018-04-02T11:21:58.495Z,3.33
2018-04-02T11:24:27.997Z,3.57
2018-04-02T11:26:55.526Z,3.80
2018-04-02T11:29:23.102Z,2.90
2018-04-02T11:31:51.418Z,6.50
2018-04-02T11:34:20.911Z,4.37
2018-04-02T11:36:48.454Z,4.63
2018-04-02T11:39:15.982Z,5.80
2018-04-02T11:41:43.513Z,3.23
2018-04-02T11:44:11.064Z,2.50
2018-04-02T11:46:38.666Z,3.27
2018-04-02T11:49:10.050Z,4.43
2018-04-02T11:51:37.588Z,4.53
2018-04-02T11:54:05.157Z,3.20
2018-04-02T11:56:33.455Z,4.60
2018-04-02T11:59:00.982Z,3.33
2018-04-02T12:01:28.516Z,2.87
2018-04-02T12:03:56.086Z,2.13
2018-04-02T12:06:23.642Z,4.70
2018-04-02T12:08:51.163Z,4.40
2018-04-02T12:11:22.697Z,2.37
2018-04-02T12:13:50.283Z,3.17
2018-04-02T12:16:17.791Z,2.77
2018-04-02T12:18:53.462Z,3.77
2018-04-02T12:21:21.084Z,2.90
2018-04-02T12:23:49.261Z,2.30
2018-04-02T12:26:16.174Z,2.30
2018-04-02T12:28:43.687Z,1.90
2018-04-02T12:31:11.222Z,2.53
2018-04-02T12:33:38.767Z,2.70
2018-04-02T12:36:06.342Z,2.43
2018-04-02T12:38:33.857Z,2.97
2018-04-02T12:41:01.410Z,3.27
2018-04-02T12:43:29.910Z,2.27
2018-04-02T12:46:01.359Z,2.60
2018-04-02T12:48:36.620Z,6.70
2018-04-02T12:51:05.157Z,1.97
2018-04-02T12:53:32.686Z,2.60
2018-04-02T12:56:00.210Z,3.00
2018-04-02T12:58:27.772Z,3.60
2018-04-02T13:00:55.308Z,5.17
2018-04-02T13:03:22.846Z,6.50
2018-04-02T13:05:52.350Z,1.93
2018-04-02T13:08:34.032Z,3.00
2018-04-02T13:11:01.573Z,2.20
2018-04-02T13:13:29.114Z,2.73
2018-04-02T13:16:03.578Z,2.20
2018-04-02T13:18:31.114Z,2.50
2018-04-02T13:20:58.614Z,1.97
2018-04-02T13:23:26.147Z,2.37
2018-04-02T13:25:56.959Z,2.57
2018-04-02T13:28:36.010Z,2.37
2018-04-02T13:31:03.531Z,2.63
2018-04-02T13:33:31.190Z,1.60
2018-04-02T13:36:13.255Z,2.73
2018-04-02T13:38:40.826Z,1.87
2018-04-02T13:41:08.450Z,2.17
2018-04-02T13:43:41.314Z,2.20
2018-04-02T13:46:08.917Z,1.73
2018-04-02T13:48:36.434Z,1.40
2018-04-02T13:51:04.032Z,1.90
2018-04-02T13:53:31.787Z,1.90
2018-04-02T13:55:59.321Z,2.00
2018-04-02T13:58:27.639Z,2.90
2018-04-02T14:00:55.327Z,1.70
2018-04-02T14:03:22.862Z,1.57
2018-04-02T14:05:51.403Z,1.73
2018-04-02T14:08:19.050Z,1.17
2018-04-02T14:10:46.657Z,1.70
2018-04-02T14:13:14.315Z,1.73
2018-04-02T14:16:05.935Z,1.13
2018-04-02T14:18:33.490Z,1.57
2018-04-02T14:21:03.756Z,1.60
2018-04-02T14:23:33.220Z,1.20
2018-04-02T14:26:00.742Z,2.63
2018-04-02T14:28:28.322Z,1.23
2018-04-02T14:30:55.915Z,1.43
2018-04-02T14:33:23.448Z,1.87
2018-04-02T14:35:51.796Z,1.50
2018-04-02T14:38:23.998Z,1.30
2018-04-02T14:40:51.585Z,6.03
2018-04-02T14:43:20.114Z,1.87
2018-04-02T14:45:57.654Z,2.33
2018-04-02T14:48:27.094Z,2.30
2018-04-02T14:50:55.926Z,1.23
2018-04-02T14:53:23.470Z,2.80
2018-04-02T14:55:51.795Z,1.90
2018-04-02T14:58:19.378Z,1.70
2018-04-02T15:00:48.835Z,1.97
2018-04-02T15:03:16.388Z,1.17
2018-04-02T15:05:44.684Z,1.70
2018-04-02T15:08:13.028Z,1.27
2018-04-02T15:10:40.598Z,1.27
2018-04-02T15:13:09.351Z,1.27
2018-04-02T15:15:37.992Z,1.30
2018-04-02T15:18:05.561Z,1.30
2018-04-02T15:20:39.438Z,1.07
2018-04-02T15:23:06.978Z,1.47
2018-04-02T15:25:34.603Z,2.20
2018-04-02T15:28:10.621Z,1.17
2018-04-02T15:30:38.150Z,1.60
2018-04-02T15:33:05.703Z,1.30
2018-04-02T15:35:33.279Z,1.70
2018-04-02T15:38:06.423Z,1.20
2018-04-02T15:40:33.930Z,1.47
2018-04-02T15:43:15.146Z,1.53
2018-04-02T15:45:42.676Z,1.37
2018-04-02T15:48:10.214Z,1.10
2018-04-02T15:50:37.731Z,1.07
2018-04-02T15:53:05.333Z,1.40
2018-04-02T15:55:32.877Z,0.90
2018-04-02T15:58:19.710Z,1.57
2018-04-02T16:00:48.011Z,1.07
2018-04-02T16:03:16.289Z,0.90
2018-04-02T16:05:43.818Z,1.20
2018-04-02T16:08:11.370Z,1.93
2018-04-02T16:10:38.914Z,1.30
2018-04-02T16:13:07.174Z,1.00
2018-04-02T16:15:34.705Z,2.00
2018-04-02T16:18:04.186Z,1.67
2018-04-02T16:20:31.754Z,1.73
2018-04-02T16:23:01.314Z,1.07
2018-04-02T16:25:28.847Z,1.00
2018-04-02T16:27:56.797Z,0.93
2018-04-02T16:30:31.478Z,0.90
2018-04-02T16:32:59.002Z,1.93
2018-04-02T16:35:27.319Z,1.60
2018-04-02T16:37:56.007Z,1.40
2018-04-02T16:40:23.568Z,2.47
2018-04-02T16:45:44.774Z,1.37
2018-04-02T16:48:12.398Z,1.20
2018-04-02T16:50:39.938Z,1.20
2018-04-02T16:53:08.238Z,1.20
2018-04-02T16:55:35.743Z,1.40
2018-04-02T16:58:03.319Z,0.83
2018-04-02T17:00:31.614Z,0.90
2018-04-02T17:02:59.122Z,1.97
2018-04-02T17:05:27.415Z,1.23
2018-04-02T17:07:54.939Z,0.90
2018-04-02T17:10:22.519Z,1.10
2018-04-02T17:12:50.050Z,1.17
2018-04-02T17:15:17.598Z,1.00
2018-04-02T17:17:45.102Z,0.90
2018-04-02T17:20:12.651Z,1.10
2018-04-02T17:22:40.226Z,1.57
2018-04-02T17:25:08.562Z,1.10
2018-04-02T17:27:36.888Z,1.00
2018-04-02T17:30:04.411Z,3.37
2018-04-02T17:32:31.947Z,1.17
2018-04-02T17:34:59.477Z,1.77
2018-04-02T17:37:27.052Z,1.20
2018-04-02T17:39:54.579Z,4.00
2018-04-02T17:42:22.867Z,9.10
2018-04-02T17:44:52.375Z,5.00
2018-04-02T17:47:19.920Z,2.13
2018-04-02T17:49:47.446Z,1.83
2018-04-02T17:52:14.942Z,2.63
2018-04-02T17:54:42.503Z,2.80
2018-04-02T17:57:10.051Z,3.93
2018-04-02T17:59:37.584Z,5.10
2018-04-02T18:02:05.091Z,3.27
2018-04-02T18:04:32.687Z,3.80
2018-04-02T18:07:00.258Z,2.87
2018-04-02T18:09:27.837Z,5.60
2018-04-02T18:11:55.347Z,4.00
2018-04-02T18:14:22.962Z,3.23
2018-04-02T18:16:50.508Z,2.73
2018-04-02T18:19:18.057Z,2.53
2018-04-02T18:21:45.622Z,2.20
2018-04-02T18:24:13.184Z,2.37
2018-04-02T18:26:40.725Z,3.93
2018-04-02T18:29:08.276Z,1.90
2018-04-02T18:31:35.807Z,3.73
2018-04-02T18:34:03.347Z,1.50
2018-04-02T18:36:30.854Z,3.37
2018-04-02T18:38:58.410Z,2.30
2018-04-02T18:41:29.607Z,2.40
2018-04-02T18:43:57.223Z,2.27
2018-04-02T18:46:24.778Z,2.43
2018-04-02T18:48:52.330Z,1.77
2018-04-02T18:51:20.662Z,1.90
2018-04-02T18:53:48.262Z,3.17
2018-04-02T18:56:15.766Z,2.67
2018-04-02T18:58:43.273Z,2.97
2018-04-02T19:01:10.810Z,4.03
2018-04-02T19:03:38.358Z,3.33
2018-04-02T19:06:05.896Z,4.30
2018-04-02T19:08:34.215Z,4.00
2018-04-02T19:11:02.567Z,5.10
2018-04-02T19:13:30.098Z,3.27
2018-04-02T19:15:57.630Z,4.80
2018-04-02T19:18:25.139Z,3.33
2018-04-02T19:20:56.180Z,4.57
2018-04-02T19:23:23.714Z,3.07
2018-04-02T19:25:51.316Z,2.40
2018-04-02T19:28:20.518Z,8.00
2018-04-02T19:30:48.042Z,2.73
2018-04-02T19:33:15.558Z,1.50
2018-04-02T19:35:43.136Z,2.57
2018-04-02T19:38:10.737Z,2.83
2018-04-02T19:40:38.291Z,2.23
2018-04-02T19:43:06.774Z,1.93
2018-04-02T19:45:34.729Z,2.60
2018-04-02T19:48:03.207Z,1.87
2018-04-02T19:50:30.773Z,1.30
2018-04-02T19:53:18.570Z,1.37
2018-04-02T19:55:46.850Z,4.00
2018-04-02T19:58:14.471Z,2.13
2018-04-02T20:00:41.981Z,2.00
2018-04-02T20:03:10.291Z,2.07
2018-04-02T20:05:37.875Z,2.73
2018-04-02T20:08:05.453Z,1.60
2018-04-02T20:10:33.007Z,1.50
2018-04-02T20:13:00.526Z,2.77
2018-04-02T20:15:28.104Z,1.73
2018-04-02T20:17:55.639Z,1.47
2018-04-02T20:20:23.217Z,1.43
2018-04-02T20:22:50.783Z,2.50
2018-04-02T20:25:18.406Z,1.40
2018-04-02T20:27:45.984Z,1.50
2018-04-02T20:30:13.527Z,4.37
2018-04-02T20:32:41.065Z,1.83
2018-04-02T20:35:08.719Z,1.83
2018-04-02T20:37:36.995Z,1.53
2018-04-02T20:40:10.947Z,1.40
2018-04-02T20:42:38.557Z,3.30
2018-04-02T20:45:06.140Z,2.10
2018-04-02T20:47:33.761Z,1.77
2018-04-02T20:50:01.292Z,1.67
2018-04-02T20:52:28.819Z,1.73
2018-04-02T20:54:56.443Z,2.00
2018-04-02T20:57:23.985Z,2.77
2018-04-02T20:59:51.535Z,2.40
2018-04-02T21:02:19.806Z,2.30
2018-04-02T21:04:47.345Z,1.50
2018-04-02T21:07:16.752Z,2.57
2018-04-02T21:09:44.263Z,1.87
2018-04-02T21:12:12.615Z,1.70
2018-04-02T21:14:40.122Z,3.33
2018-04-02T21:17:07.641Z,2.03
2018-04-02T21:19:35.149Z,1.73
2018-04-02T21:22:02.675Z,2.07
2018-04-02T21:24:30.223Z,1.73
2018-04-02T21:26:58.548Z,2.30
2018-04-02T21:29:26.094Z,2.87
2018-04-02T21:31:53.626Z,4.20
2018-04-02T21:34:21.167Z,2.73
2018-04-02T21:36:49.470Z,7.83
2018-04-02T21:39:17.788Z,3.23
2018-04-02T21:41:46.086Z,2.70
2018-04-02T21:44:13.659Z,2.20
2018-04-02T21:46:41.198Z,3.90
2018-04-02T21:49:08.752Z,1.77
2018-04-02T21:51:36.279Z,5.50
2018-04-02T21:54:06.727Z,3.13
2018-04-02T21:56:34.271Z,6.60
2018-04-02T21:59:01.927Z,3.17
2018-04-02T22:01:30.233Z,2.27
2018-04-02T22:03:59.507Z,2.43
2018-04-02T22:06:38.930Z,2.60
2018-04-02T22:09:07.203Z,2.10
2018-04-02T22:11:34.778Z,5.77
2018-04-02T22:14:02.343Z,5.10
2018-04-02T22:16:29.927Z,3.47
2018-04-02T22:18:57.474Z,4.20
2018-04-02T22:21:25.002Z,4.83
2018-04-02T22:23:52.522Z,2.50
2018-04-02T22:26:20.818Z,3.67
2018-04-02T22:28:49.114Z,2.90
2018-04-02T22:31:17.414Z,2.33
2018-04-02T22:33:45.698Z,2.83
2018-04-02T22:36:13.226Z,1.77
2018-04-02T22:38:40.744Z,2.77
2018-04-02T22:41:08.271Z,2.83
2018-04-02T22:43:36.558Z,3.87
2018-04-02T22:46:04.123Z,3.03
2018-04-02T22:48:31.668Z,2.13
2018-04-02T22:50:59.206Z,2.97
2018-04-02T22:53:26.738Z,2.07
2018-04-02T22:55:54.241Z,3.47
2018-04-02T22:58:21.770Z,2.70
2018-04-02T23:00:49.279Z,3.73
2018-04-02T23:03:16.790Z,3.00
2018-04-02T23:05:44.344Z,3.20
2018-04-02T23:08:11.876Z,2.50
2018-04-02T23:10:39.403Z,2.27
2018-04-02T23:13:06.908Z,2.33
2018-04-02T23:15:35.226Z,5.83
2018-04-02T23:18:02.751Z,2.60
2018-04-02T23:20:30.290Z,1.90
2018-04-02T23:22:57.794Z,3.77
2018-04-02T23:25:25.314Z,3.33
2018-04-02T23:27:52.830Z,2.10
2018-04-02T23:30:21.116Z,2.77
2018-04-02T23:32:48.637Z,3.47
2018-04-02T23:35:16.184Z,2.10
2018-04-02T23:37:43.710Z,3.03
2018-04-02T23:40:11.225Z,2.20
2018-04-02T23:42:38.733Z,2.97
2018-04-02T23:45:06.291Z,2.63
2018-04-02T23:47:33.806Z,3.20
2018-04-02T23:50:01.306Z,5.07
2018-04-02T23:52:28.810Z,2.60
2018-04-02T23:54:56.307Z,3.13
2018-04-02T23:57:23.847Z,4.10
2018-04-02T23:59:51.368Z,2.87
